sensor_id;sensor_type;location;lat;lon;timestamp;P1;durP1;ratioP1;P2;durP2;ratioP2
41556;SDS011;27720;51.992;5.890;2023-04-29T12:50:57;1.73;;;1.00;;
41556;SDS011;27720;51.992;5.890;2023-04-29T12:53:24;2.28;;;1.05;;
41556;SDS011;27720;51.992;5.890;2023-04-29T12:55:51;4.07;;;1.27;;
41556;SDS011;27720;51.992;5.890;2023-04-29T12:58:18;3.72;;;1.20;;
41556;SDS011;27720;51.992;5.890;2023-04-29T13:00:44;1.67;;;1.10;;
41556;SDS011;27720;51.992;5.890;2023-04-29T13:03:12;2.90;;;0.80;;
41556;SDS011;27720;51.992;5.890;2023-04-29T13:05:39;2.33;;;0.70;;
41556;SDS011;27720;51.992;5.890;2023-04-29T13:08:05;1.50;;;1.00;;
41556;SDS011;27720;51.992;5.890;2023-04-29T13:10:31;1.95;;;0.95;;
41556;SDS011;27720;51.992;5.890;2023-04-29T13:12:57;2.83;;;1.20;;
41556;SDS011;27720;51.992;5.890;2023-04-29T13:15:23;3.70;;;1.25;;
41556;SDS011;27720;51.992;5.890;2023-04-29T13:17:50;1.77;;;1.10;;
41556;SDS011;27720;51.992;5.890;2023-04-29T13:20:16;1.17;;;0.88;;
41556;SDS011;27720;51.992;5.890;2023-04-29T13:22:42;1.30;;;0.90;;
41556;SDS011;27720;51.992;5.890;2023-04-29T13:25:11;2.10;;;0.95;;
41556;SDS011;27720;51.992;5.890;2023-04-29T13:27:37;2.15;;;0.98;;
41556;SDS011;27720;51.992;5.890;2023-04-29T13:30:04;1.95;;;0.80;;
41556;SDS011;27720;51.992;5.890;2023-04-29T13:32:31;2.30;;;1.42;;
41556;SDS011;27720;51.992;5.890;2023-04-29T13:34:57;2.10;;;1.10;;
41556;SDS011;27720;51.992;5.890;2023-04-29T13:37:23;1.58;;;0.80;;
41556;SDS011;27720;51.992;5.890;2023-04-29T13:39:49;1.98;;;0.80;;
41556;SDS011;27720;51.992;5.890;2023-04-29T13:42:14;1.67;;;0.88;;
41556;SDS011;27720;51.992;5.890;2023-04-29T13:44:40;1.33;;;0.70;;
41556;SDS011;27720;51.992;5.890;2023-04-29T13:47:09;1.35;;;0.68;;
41556;SDS011;27720;51.992;5.890;2023-04-29T13:49:37;1.20;;;0.60;;
41556;SDS011;27720;51.992;5.890;2023-04-29T13:52:04;1.42;;;0.70;;
41556;SDS011;27720;51.992;5.890;2023-04-29T13:54:29;0.52;;;0.47;;
41556;SDS011;27720;51.992;5.890;2023-04-29T13:56:55;2.05;;;0.70;;
41556;SDS011;27720;51.992;5.890;2023-04-29T13:59:21;0.77;;;0.50;;
41556;SDS011;27720;51.992;5.890;2023-04-29T14:01:47;1.17;;;0.50;;
41556;SDS011;27720;51.992;5.890;2023-04-29T14:04:15;1.77;;;0.55;;
41556;SDS011;27720;51.992;5.890;2023-04-29T14:06:41;2.10;;;0.55;;
41556;SDS011;27720;51.992;5.890;2023-04-29T14:09:08;1.02;;;0.63;;
41556;SDS011;27720;51.992;5.890;2023-04-29T14:11:34;0.80;;;0.50;;
41556;SDS011;27720;51.992;5.890;2023-04-29T14:14:01;1.75;;;0.63;;
41556;SDS011;27720;51.992;5.890;2023-04-29T14:16:27;1.15;;;0.63;;
41556;SDS011;27720;51.992;5.890;2023-04-29T14:18:54;1.77;;;0.40;;
41556;SDS011;27720;51.992;5.890;2023-04-29T14:21:19;1.20;;;0.60;;
41556;SDS011;27720;51.992;5.890;2023-04-29T14:23:48;1.15;;;0.50;;
41556;SDS011;27720;51.992;5.890;2023-04-29T14:26:14;1.65;;;0.40;;
41556;SDS011;27720;51.992;5.890;2023-04-29T14:28:40;0.70;;;0.43;;
41556;SDS011;27720;51.992;5.890;2023-04-29T14:31:06;0.65;;;0.60;;
41556;SDS011;27720;51.992;5.890;2023-04-29T14:33:32;2.03;;;0.60;;
41556;SDS011;27720;51.992;5.890;2023-04-29T14:36:00;1.13;;;0.65;;
41556;SDS011;27720;51.992;5.890;2023-04-29T14:38:26;0.80;;;0.43;;
41556;SDS011;27720;51.992;5.890;2023-04-29T14:40:51;2.65;;;0.57;;
41556;SDS011;27720;51.992;5.890;2023-04-29T14:43:17;1.70;;;0.40;;
41556;SDS011;27720;51.992;5.890;2023-04-29T14:45:43;1.45;;;0.70;;
41556;SDS011;27720;51.992;5.890;2023-04-29T14:48:09;2.70;;;0.70;;
41556;SDS011;27720;51.992;5.890;2023-04-29T14:50:35;1.27;;;1.23;;
41556;SDS011;27720;51.992;5.890;2023-04-29T14:53:01;0.68;;;0.50;;
41556;SDS011;27720;51.992;5.890;2023-04-29T14:55:27;3.05;;;0.88;;
41556;SDS011;27720;51.992;5.890;2023-04-29T14:57:53;0.88;;;0.50;;
41556;SDS011;27720;51.992;5.890;2023-04-29T15:00:18;1.70;;;0.60;;
41556;SDS011;27720;51.992;5.890;2023-04-29T15:02:45;0.98;;;0.50;;
41556;SDS011;27720;51.992;5.890;2023-04-29T15:05:11;1.10;;;0.60;;
41556;SDS011;27720;51.992;5.890;2023-04-29T15:07:36;1.08;;;0.50;;
41556;SDS011;27720;51.992;5.890;2023-04-29T15:10:03;1.00;;;0.60;;
41556;SDS011;27720;51.992;5.890;2023-04-29T15:12:30;1.25;;;0.65;;
41556;SDS011;27720;51.992;5.890;2023-04-29T15:14:56;2.35;;;0.65;;
41556;SDS011;27720;51.992;5.890;2023-04-29T15:17:22;2.15;;;0.50;;
41556;SDS011;27720;51.992;5.890;2023-04-29T15:19:47;0.50;;;0.50;;
41556;SDS011;27720;51.992;5.890;2023-04-29T15:22:13;1.17;;;0.70;;
41556;SDS011;27720;51.992;5.890;2023-04-29T15:24:39;1.85;;;0.57;;
41556;SDS011;27720;51.992;5.890;2023-04-29T15:27:07;1.30;;;0.70;;
41556;SDS011;27720;51.992;5.890;2023-04-29T15:29:33;1.45;;;0.68;;
41556;SDS011;27720;51.992;5.890;2023-04-29T15:32:03;3.45;;;1.00;;
41556;SDS011;27720;51.992;5.890;2023-04-29T15:34:29;2.42;;;1.20;;
41556;SDS011;27720;51.992;5.890;2023-04-29T15:36:55;3.28;;;1.30;;
41556;SDS011;27720;51.992;5.890;2023-04-29T15:39:21;1.38;;;0.85;;
41556;SDS011;27720;51.992;5.890;2023-04-29T15:41:47;1.45;;;0.90;;
41556;SDS011;27720;51.992;5.890;2023-04-29T15:44:13;2.50;;;0.90;;
41556;SDS011;27720;51.992;5.890;2023-04-29T15:46:39;2.38;;;0.90;;
41556;SDS011;27720;51.992;5.890;2023-04-29T15:49:04;2.25;;;0.70;;
41556;SDS011;27720;51.992;5.890;2023-04-29T15:51:30;1.17;;;0.50;;
41556;SDS011;27720;51.992;5.890;2023-04-29T15:53:56;1.45;;;0.73;;
41556;SDS011;27720;51.992;5.890;2023-04-29T15:56:23;0.95;;;0.60;;
41556;SDS011;27720;51.992;5.890;2023-04-29T15:58:49;0.90;;;0.60;;
41556;SDS011;27720;51.992;5.890;2023-04-29T16:01:15;1.45;;;0.60;;
41556;SDS011;27720;51.992;5.890;2023-04-29T16:03:44;1.55;;;0.57;;
41556;SDS011;27720;51.992;5.890;2023-04-29T16:06:09;0.98;;;0.43;;
41556;SDS011;27720;51.992;5.890;2023-04-29T16:08:35;1.35;;;0.50;;
41556;SDS011;27720;51.992;5.890;2023-04-29T16:11:01;0.40;;;0.35;;
41556;SDS011;27720;51.992;5.890;2023-04-29T16:13:27;2.22;;;0.75;;
41556;SDS011;27720;51.992;5.890;2023-04-29T16:15:53;1.05;;;0.70;;
41556;SDS011;27720;51.992;5.890;2023-04-29T16:18:19;1.52;;;1.33;;
41556;SDS011;27720;51.992;5.890;2023-04-29T16:20:44;0.93;;;0.80;;
41556;SDS011;27720;51.992;5.890;2023-04-29T16:23:11;0.80;;;0.65;;
41556;SDS011;27720;51.992;5.890;2023-04-29T16:25:38;1.38;;;0.70;;
41556;SDS011;27720;51.992;5.890;2023-04-29T16:28:05;1.08;;;0.90;;
41556;SDS011;27720;51.992;5.890;2023-04-29T16:30:31;0.85;;;0.50;;
41556;SDS011;27720;51.992;5.890;2023-04-29T16:32:56;0.88;;;0.50;;
41556;SDS011;27720;51.992;5.890;2023-04-29T16:35:22;1.83;;;0.70;;
41556;SDS011;27720;51.992;5.890;2023-04-29T16:37:51;1.85;;;0.70;;
41556;SDS011;27720;51.992;5.890;2023-04-29T16:40:17;1.15;;;0.50;;
41556;SDS011;27720;51.992;5.890;2023-04-29T16:42:43;0.85;;;0.60;;
41556;SDS011;27720;51.992;5.890;2023-04-29T16:45:09;1.35;;;0.60;;
41556;SDS011;27720;51.992;5.890;2023-04-29T16:47:36;1.63;;;0.60;;
41556;SDS011;27720;51.992;5.890;2023-04-29T16:50:05;1.75;;;0.73;;
41556;SDS011;27720;51.992;5.890;2023-04-29T16:52:32;1.33;;;0.70;;
41556;SDS011;27720;51.992;5.890;2023-04-29T16:54:58;2.55;;;0.70;;
41556;SDS011;27720;51.992;5.890;2023-04-29T16:57:25;1.52;;;0.70;;
41556;SDS011;27720;51.992;5.890;2023-04-29T16:59:54;1.98;;;0.60;;
41556;SDS011;27720;51.992;5.890;2023-04-29T17:02:20;1.55;;;0.77;;
41556;SDS011;27720;51.992;5.890;2023-04-29T17:04:49;1.02;;;0.60;;
41556;SDS011;27720;51.992;5.890;2023-04-29T17:07:15;1.30;;;0.60;;
41556;SDS011;27720;51.992;5.890;2023-04-29T17:09:44;0.95;;;0.60;;
41556;SDS011;27720;51.992;5.890;2023-04-29T17:12:12;0.85;;;0.40;;
41556;SDS011;27720;51.992;5.890;2023-04-29T17:14:38;1.75;;;0.82;;
41556;SDS011;27720;51.992;5.890;2023-04-29T17:17:05;1.15;;;0.65;;
41556;SDS011;27720;51.992;5.890;2023-04-29T17:19:31;1.80;;;1.20;;
41556;SDS011;27720;51.992;5.890;2023-04-29T17:21:57;1.77;;;1.00;;
41556;SDS011;27720;51.992;5.890;2023-04-29T17:24:23;2.85;;;1.45;;
41556;SDS011;27720;51.992;5.890;2023-04-29T17:26:50;1.25;;;0.80;;
41556;SDS011;27720;51.992;5.890;2023-04-29T17:29:19;1.90;;;0.73;;
41556;SDS011;27720;51.992;5.890;2023-04-29T17:31:45;2.03;;;1.02;;
41556;SDS011;27720;51.992;5.890;2023-04-29T17:34:17;2.97;;;0.80;;
41556;SDS011;27720;51.992;5.890;2023-04-29T17:36:47;1.05;;;0.57;;
41556;SDS011;27720;51.992;5.890;2023-04-29T17:39:14;1.92;;;0.77;;
41556;SDS011;27720;51.992;5.890;2023-04-29T17:41:40;1.63;;;0.68;;
41556;SDS011;27720;51.992;5.890;2023-04-29T17:44:06;1.13;;;0.52;;
41556;SDS011;27720;51.992;5.890;2023-04-29T17:46:36;1.58;;;0.70;;
41556;SDS011;27720;51.992;5.890;2023-04-29T17:49:02;3.60;;;0.55;;
41556;SDS011;27720;51.992;5.890;2023-04-29T17:51:29;1.13;;;0.40;;
41556;SDS011;27720;51.992;5.890;2023-04-29T17:53:58;2.15;;;0.77;;
41556;SDS011;27720;51.992;5.890;2023-04-29T17:56:24;0.70;;;0.52;;
41556;SDS011;27720;51.992;5.890;2023-04-29T17:58:51;0.38;;;0.38;;
41556;SDS011;27720;51.992;5.890;2023-04-29T18:01:20;1.20;;;0.60;;
41556;SDS011;27720;51.992;5.890;2023-04-29T18:03:45;1.20;;;0.52;;
41556;SDS011;27720;51.992;5.890;2023-04-29T18:06:11;0.98;;;0.60;;
41556;SDS011;27720;51.992;5.890;2023-04-29T18:08:37;3.65;;;1.23;;
41556;SDS011;27720;51.992;5.890;2023-04-29T18:11:02;2.53;;;0.70;;
41556;SDS011;27720;51.992;5.890;2023-04-29T18:13:28;1.73;;;0.60;;
41556;SDS011;27720;51.992;5.890;2023-04-29T18:15:54;1.13;;;0.52;;
41556;SDS011;27720;51.992;5.890;2023-04-29T18:18:22;0.75;;;0.57;;
41556;SDS011;27720;51.992;5.890;2023-04-29T18:20:48;1.38;;;0.65;;
41556;SDS011;27720;51.992;5.890;2023-04-29T18:23:16;1.75;;;0.50;;
41556;SDS011;27720;51.992;5.890;2023-04-29T18:25:42;1.45;;;0.40;;
41556;SDS011;27720;51.992;5.890;2023-04-29T18:28:08;0.57;;;0.50;;
41556;SDS011;27720;51.992;5.890;2023-04-29T18:30:34;1.00;;;0.50;;
41556;SDS011;27720;51.992;5.890;2023-04-29T18:33:00;1.45;;;0.60;;
41556;SDS011;27720;51.992;5.890;2023-04-29T18:35:26;1.35;;;0.50;;
41556;SDS011;27720;51.992;5.890;2023-04-29T18:37:52;1.35;;;0.60;;
41556;SDS011;27720;51.992;5.890;2023-04-29T18:40:18;1.02;;;0.52;;
41556;SDS011;27720;51.992;5.890;2023-04-29T18:42:44;0.60;;;0.45;;
41556;SDS011;27720;51.992;5.890;2023-04-29T18:45:10;0.65;;;0.65;;
41556;SDS011;27720;51.992;5.890;2023-04-29T18:47:36;1.00;;;0.60;;
41556;SDS011;27720;51.992;5.890;2023-04-29T18:50:02;0.47;;;0.40;;
41556;SDS011;27720;51.992;5.890;2023-04-29T18:52:28;3.20;;;0.85;;
41556;SDS011;27720;51.992;5.890;2023-04-29T18:54:54;0.65;;;0.50;;
41556;SDS011;27720;51.992;5.890;2023-04-29T18:57:20;0.90;;;0.45;;
41556;SDS011;27720;51.992;5.890;2023-04-29T18:59:45;1.10;;;0.45;;
41556;SDS011;27720;51.992;5.890;2023-04-29T19:02:11;2.10;;;0.60;;
41556;SDS011;27720;51.992;5.890;2023-04-29T19:04:37;0.95;;;0.63;;
41556;SDS011;27720;51.992;5.890;2023-04-29T19:07:02;0.85;;;0.50;;
41556;SDS011;27720;51.992;5.890;2023-04-29T19:09:30;1.48;;;0.60;;
41556;SDS011;27720;51.992;5.890;2023-04-29T19:11:57;3.30;;;0.80;;
41556;SDS011;27720;51.992;5.890;2023-04-29T19:14:30;1.88;;;0.60;;
41556;SDS011;27720;51.992;5.890;2023-04-29T19:16:58;2.05;;;0.98;;
41556;SDS011;27720;51.992;5.890;2023-04-29T19:19:24;2.10;;;0.80;;
41556;SDS011;27720;51.992;5.890;2023-04-29T19:21:50;1.83;;;0.75;;
41556;SDS011;27720;51.992;5.890;2023-04-29T19:24:19;2.03;;;0.70;;
41556;SDS011;27720;51.992;5.890;2023-04-29T19:26:45;0.73;;;0.60;;
41556;SDS011;27720;51.992;5.890;2023-04-29T19:29:10;1.05;;;0.70;;
41556;SDS011;27720;51.992;5.890;2023-04-29T19:31:36;2.42;;;0.82;;
41556;SDS011;27720;51.992;5.890;2023-04-29T19:34:02;1.80;;;0.93;;
41556;SDS011;27720;51.992;5.890;2023-04-29T19:36:27;3.22;;;0.90;;
41556;SDS011;27720;51.992;5.890;2023-04-29T19:38:53;2.55;;;0.85;;
41556;SDS011;27720;51.992;5.890;2023-04-29T19:41:19;1.05;;;0.60;;
41556;SDS011;27720;51.992;5.890;2023-04-29T19:43:45;1.90;;;0.85;;
41556;SDS011;27720;51.992;5.890;2023-04-29T19:46:13;2.45;;;1.00;;
41556;SDS011;27720;51.992;5.890;2023-04-29T19:48:39;1.90;;;0.70;;
41556;SDS011;27720;51.992;5.890;2023-04-29T19:51:05;1.50;;;0.80;;
41556;SDS011;27720;51.992;5.890;2023-04-29T19:53:33;1.85;;;0.88;;
41556;SDS011;27720;51.992;5.890;2023-04-29T19:56:02;1.63;;;0.90;;
41556;SDS011;27720;51.992;5.890;2023-04-29T19:58:28;1.67;;;0.73;;
41556;SDS011;27720;51.992;5.890;2023-04-29T20:00:54;1.73;;;0.77;;
41556;SDS011;27720;51.992;5.890;2023-04-29T20:03:19;2.80;;;0.75;;
41556;SDS011;27720;51.992;5.890;2023-04-29T20:05:45;1.45;;;0.75;;
41556;SDS011;27720;51.992;5.890;2023-04-29T20:08:11;2.72;;;0.80;;
41556;SDS011;27720;51.992;5.890;2023-04-29T20:10:37;1.55;;;0.90;;
41556;SDS011;27720;51.992;5.890;2023-04-29T20:13:03;2.95;;;0.90;;
41556;SDS011;27720;51.992;5.890;2023-04-29T20:15:29;3.20;;;0.90;;
41556;SDS011;27720;51.992;5.890;2023-04-29T20:17:54;1.95;;;0.80;;
41556;SDS011;27720;51.992;5.890;2023-04-29T20:20:20;2.95;;;1.10;;
41556;SDS011;27720;51.992;5.890;2023-04-29T20:22:46;1.83;;;0.90;;
41556;SDS011;27720;51.992;5.890;2023-04-29T20:25:12;3.05;;;1.05;;
41556;SDS011;27720;51.992;5.890;2023-04-29T20:27:38;2.13;;;1.00;;
41556;SDS011;27720;51.992;5.890;2023-04-29T20:30:05;1.48;;;0.80;;
41556;SDS011;27720;51.992;5.890;2023-04-29T20:32:32;1.50;;;0.88;;
41556;SDS011;27720;51.992;5.890;2023-04-29T20:34:58;1.52;;;0.88;;
41556;SDS011;27720;51.992;5.890;2023-04-29T20:37:24;1.65;;;1.00;;
41556;SDS011;27720;51.992;5.890;2023-04-29T20:39:50;3.08;;;1.48;;
41556;SDS011;27720;51.992;5.890;2023-04-29T20:42:15;1.98;;;0.90;;
41556;SDS011;27720;51.992;5.890;2023-04-29T20:44:41;1.35;;;0.90;;
41556;SDS011;27720;51.992;5.890;2023-04-29T20:47:07;3.10;;;1.15;;
41556;SDS011;27720;51.992;5.890;2023-04-29T20:49:33;1.70;;;0.90;;
41556;SDS011;27720;51.992;5.890;2023-04-29T20:51:59;2.03;;;1.00;;
41556;SDS011;27720;51.992;5.890;2023-04-29T20:54:25;1.75;;;0.95;;
41556;SDS011;27720;51.992;5.890;2023-04-29T20:56:51;2.78;;;1.17;;
41556;SDS011;27720;51.992;5.890;2023-04-29T20:59:16;1.60;;;1.10;;
41556;SDS011;27720;51.992;5.890;2023-04-29T21:01:42;4.45;;;1.67;;
41556;SDS011;27720;51.992;5.890;2023-04-29T21:04:09;4.38;;;1.52;;
41556;SDS011;27720;51.992;5.890;2023-04-29T21:06:35;2.45;;;1.30;;
41556;SDS011;27720;51.992;5.890;2023-04-29T21:09:01;4.07;;;1.50;;
41556;SDS011;27720;51.992;5.890;2023-04-29T21:11:27;2.33;;;1.27;;
41556;SDS011;27720;51.992;5.890;2023-04-29T21:13:53;3.92;;;1.75;;
41556;SDS011;27720;51.992;5.890;2023-04-29T21:16:18;1.45;;;1.05;;
41556;SDS011;27720;51.992;5.890;2023-04-29T21:18:44;6.28;;;1.65;;
41556;SDS011;27720;51.992;5.890;2023-04-29T21:21:10;2.85;;;1.20;;
41556;SDS011;27720;51.992;5.890;2023-04-29T21:23:36;4.90;;;1.80;;
41556;SDS011;27720;51.992;5.890;2023-04-29T21:26:03;1.75;;;1.20;;
41556;SDS011;27720;51.992;5.890;2023-04-29T21:28:29;4.38;;;1.92;;
41556;SDS011;27720;51.992;5.890;2023-04-29T21:30:54;3.45;;;1.80;;
41556;SDS011;27720;51.992;5.890;2023-04-29T21:33:21;2.63;;;1.63;;
41556;SDS011;27720;51.992;5.890;2023-04-29T21:35:47;4.53;;;1.60;;
41556;SDS011;27720;51.992;5.890;2023-04-29T21:38:15;3.10;;;1.58;;
41556;SDS011;27720;51.992;5.890;2023-04-29T21:40:41;2.25;;;1.38;;
41556;SDS011;27720;51.992;5.890;2023-04-29T21:43:10;3.05;;;1.60;;
41556;SDS011;27720;51.992;5.890;2023-04-29T21:45:36;3.70;;;1.92;;
41556;SDS011;27720;51.992;5.890;2023-04-29T21:48:06;4.57;;;1.70;;
41556;SDS011;27720;51.992;5.890;2023-04-29T21:50:40;3.45;;;1.52;;
41556;SDS011;27720;51.992;5.890;2023-04-29T21:53:07;3.80;;;1.70;;
41556;SDS011;27720;51.992;5.890;2023-04-29T21:55:33;3.50;;;1.90;;
41556;SDS011;27720;51.992;5.890;2023-04-29T21:57:59;4.80;;;2.00;;
41556;SDS011;27720;51.992;5.890;2023-04-29T22:00:24;3.85;;;1.92;;
41556;SDS011;27720;51.992;5.890;2023-04-29T22:03:05;6.55;;;1.92;;
41556;SDS011;27720;51.992;5.890;2023-04-29T22:05:35;3.75;;;2.15;;
41556;SDS011;27720;51.992;5.890;2023-04-29T22:08:01;3.10;;;1.65;;
41556;SDS011;27720;51.992;5.890;2023-04-29T22:10:28;4.63;;;2.22;;
41556;SDS011;27720;51.992;5.890;2023-04-29T22:12:57;4.25;;;2.00;;
41556;SDS011;27720;51.992;5.890;2023-04-29T22:15:23;3.85;;;2.15;;
41556;SDS011;27720;51.992;5.890;2023-04-29T22:17:49;6.55;;;2.35;;
41556;SDS011;27720;51.992;5.890;2023-04-29T22:20:15;6.93;;;2.10;;
41556;SDS011;27720;51.992;5.890;2023-04-29T22:22:41;4.13;;;2.67;;
41556;SDS011;27720;51.992;5.890;2023-04-29T22:25:07;4.97;;;3.00;;
41556;SDS011;27720;51.992;5.890;2023-04-29T22:27:32;4.88;;;2.28;;
41556;SDS011;27720;51.992;5.890;2023-04-29T22:29:58;5.20;;;2.35;;
41556;SDS011;27720;51.992;5.890;2023-04-29T22:32:24;5.82;;;1.90;;
41556;SDS011;27720;51.992;5.890;2023-04-29T22:34:50;6.18;;;2.30;;
41556;SDS011;27720;51.992;5.890;2023-04-29T22:37:18;3.35;;;1.98;;
41556;SDS011;27720;51.992;5.890;2023-04-29T22:39:44;5.55;;;2.10;;
41556;SDS011;27720;51.992;5.890;2023-04-29T22:42:10;4.93;;;1.65;;
41556;SDS011;27720;51.992;5.890;2023-04-29T22:44:35;3.78;;;2.42;;
41556;SDS011;27720;51.992;5.890;2023-04-29T22:47:01;6.45;;;2.10;;
41556;SDS011;27720;51.992;5.890;2023-04-29T22:49:27;3.10;;;1.92;;
41556;SDS011;27720;51.992;5.890;2023-04-29T22:51:53;4.50;;;2.13;;
41556;SDS011;27720;51.992;5.890;2023-04-29T22:54:19;6.50;;;2.75;;
41556;SDS011;27720;51.992;5.890;2023-04-29T22:56:45;2.88;;;1.92;;
41556;SDS011;27720;51.992;5.890;2023-04-29T22:59:11;5.32;;;2.47;;
41556;SDS011;27720;51.992;5.890;2023-04-29T23:01:37;3.55;;;1.98;;
41556;SDS011;27720;51.992;5.890;2023-04-29T23:04:02;4.80;;;2.00;;
41556;SDS011;27720;51.992;5.890;2023-04-29T23:06:28;5.00;;;1.73;;
41556;SDS011;27720;51.992;5.890;2023-04-29T23:08:54;4.00;;;2.00;;
41556;SDS011;27720;51.992;5.890;2023-04-29T23:11:20;3.55;;;2.00;;
41556;SDS011;27720;51.992;5.890;2023-04-29T23:13:46;3.05;;;1.90;;
41556;SDS011;27720;51.992;5.890;2023-04-29T23:16:11;3.40;;;1.50;;
41556;SDS011;27720;51.992;5.890;2023-04-29T23:18:37;3.55;;;1.58;;
41556;SDS011;27720;51.992;5.890;2023-04-29T23:21:03;3.38;;;1.95;;
41556;SDS011;27720;51.992;5.890;2023-04-29T23:23:29;4.00;;;2.15;;
41556;SDS011;27720;51.992;5.890;2023-04-29T23:25:55;4.85;;;2.08;;
41556;SDS011;27720;51.992;5.890;2023-04-29T23:28:20;4.10;;;2.20;;
41556;SDS011;27720;51.992;5.890;2023-04-29T23:30:46;3.63;;;1.40;;
41556;SDS011;27720;51.992;5.890;2023-04-29T23:33:13;3.88;;;1.80;;
41556;SDS011;27720;51.992;5.890;2023-04-29T23:35:38;4.10;;;1.33;;
41556;SDS011;27720;51.992;5.890;2023-04-29T23:38:04;3.50;;;1.88;;
41556;SDS011;27720;51.992;5.890;2023-04-29T23:40:30;2.92;;;1.67;;
41556;SDS011;27720;51.992;5.890;2023-04-29T23:42:56;3.08;;;1.48;;
41556;SDS011;27720;51.992;5.890;2023-04-29T23:45:22;3.72;;;1.85;;
41556;SDS011;27720;51.992;5.890;2023-04-29T23:47:47;2.47;;;1.50;;
41556;SDS011;27720;51.992;5.890;2023-04-29T23:50:13;3.63;;;1.65;;
41556;SDS011;27720;51.992;5.890;2023-04-29T23:52:39;2.85;;;1.35;;
41556;SDS011;27720;51.992;5.890;2023-04-29T23:55:05;3.97;;;1.83;;
41556;SDS011;27720;51.992;5.890;2023-04-29T23:57:31;1.92;;;1.50;;
41556;SDS011;27720;51.992;5.890;2023-04-29T23:59:56;2.45;;;1.50;;
